sensor_id;sensor_type;location;lat;lon;timestamp;P1;durP1;ratioP1;P2;durP2;ratioP2
35150;SDS011;55720;51.972;4.624;2023-04-10T00:00:07;16.92;;;10.90;;
35150;SDS011;55720;51.972;4.624;2023-04-10T00:02:34;19.58;;;11.68;;
35150;SDS011;55720;51.972;4.624;2023-04-10T00:05:01;16.13;;;11.27;;
35150;SDS011;55720;51.972;4.624;2023-04-10T00:07:27;17.05;;;10.52;;
35150;SDS011;55720;51.972;4.624;2023-04-10T00:09:52;19.60;;;11.30;;
35150;SDS011;55720;51.972;4.624;2023-04-10T00:12:18;19.38;;;10.73;;
35150;SDS011;55720;51.972;4.624;2023-04-10T00:14:43;19.13;;;11.30;;
35150;SDS011;55720;51.972;4.624;2023-04-10T00:17:09;18.90;;;11.35;;
35150;SDS011;55720;51.972;4.624;2023-04-10T00:19:34;22.15;;;12.23;;
35150;SDS011;55720;51.972;4.624;2023-04-10T00:22:00;20.13;;;11.48;;
35150;SDS011;55720;51.972;4.624;2023-04-10T00:24:26;16.13;;;10.60;;
35150;SDS011;55720;51.972;4.624;2023-04-10T00:26:51;18.05;;;11.30;;
35150;SDS011;55720;51.972;4.624;2023-04-10T00:29:17;15.55;;;11.02;;
35150;SDS011;55720;51.972;4.624;2023-04-10T00:31:42;18.40;;;10.50;;
35150;SDS011;55720;51.972;4.624;2023-04-10T00:34:08;18.00;;;11.25;;
35150;SDS011;55720;51.972;4.624;2023-04-10T00:36:34;16.15;;;10.85;;
35150;SDS011;55720;51.972;4.624;2023-04-10T00:38:59;17.02;;;11.20;;
35150;SDS011;55720;51.972;4.624;2023-04-10T00:41:25;16.48;;;10.88;;
35150;SDS011;55720;51.972;4.624;2023-04-10T00:43:54;16.10;;;10.45;;
35150;SDS011;55720;51.972;4.624;2023-04-10T00:46:21;16.08;;;10.10;;
35150;SDS011;55720;51.972;4.624;2023-04-10T00:48:50;16.08;;;10.13;;
35150;SDS011;55720;51.972;4.624;2023-04-10T00:51:19;18.70;;;11.75;;
35150;SDS011;55720;51.972;4.624;2023-04-10T00:53:47;19.45;;;11.48;;
35150;SDS011;55720;51.972;4.624;2023-04-10T00:56:15;18.95;;;10.90;;
35150;SDS011;55720;51.972;4.624;2023-04-10T00:58:44;13.95;;;8.25;;
35150;SDS011;55720;51.972;4.624;2023-04-10T01:01:10;20.58;;;11.65;;
35150;SDS011;55720;51.972;4.624;2023-04-10T01:03:36;20.67;;;10.98;;
35150;SDS011;55720;51.972;4.624;2023-04-10T01:09:03;17.33;;;11.15;;
35150;SDS011;55720;51.972;4.624;2023-04-10T01:14:22;15.82;;;10.85;;
35150;SDS011;55720;51.972;4.624;2023-04-10T01:17:00;15.05;;;10.77;;
35150;SDS011;55720;51.972;4.624;2023-04-10T01:22:13;22.17;;;10.70;;
35150;SDS011;55720;51.972;4.624;2023-04-10T01:30:16;17.85;;;11.27;;
35150;SDS011;55720;51.972;4.624;2023-04-10T01:32:45;16.08;;;10.50;;
35150;SDS011;55720;51.972;4.624;2023-04-10T01:35:13;17.27;;;10.98;;
35150;SDS011;55720;51.972;4.624;2023-04-10T01:37:40;15.63;;;10.43;;
35150;SDS011;55720;51.972;4.624;2023-04-10T01:40:09;15.95;;;10.40;;
35150;SDS011;55720;51.972;4.624;2023-04-10T01:42:38;16.60;;;10.35;;
35150;SDS011;55720;51.972;4.624;2023-04-10T01:45:08;17.77;;;10.55;;
35150;SDS011;55720;51.972;4.624;2023-04-10T01:47:41;15.95;;;10.52;;
35150;SDS011;55720;51.972;4.624;2023-04-10T01:50:07;15.20;;;10.07;;
35150;SDS011;55720;51.972;4.624;2023-04-10T01:52:34;16.55;;;10.40;;
35150;SDS011;55720;51.972;4.624;2023-04-10T01:55:00;15.32;;;10.35;;
35150;SDS011;55720;51.972;4.624;2023-04-10T01:57:28;14.23;;;9.50;;
35150;SDS011;55720;51.972;4.624;2023-04-10T01:59:55;14.60;;;9.88;;
35150;SDS011;55720;51.972;4.624;2023-04-10T02:02:21;17.40;;;10.27;;
35150;SDS011;55720;51.972;4.624;2023-04-10T02:04:47;13.82;;;9.70;;
35150;SDS011;55720;51.972;4.624;2023-04-10T02:07:34;14.32;;;9.88;;
35150;SDS011;55720;51.972;4.624;2023-04-10T02:10:40;14.57;;;9.75;;
35150;SDS011;55720;51.972;4.624;2023-04-10T02:15:43;16.98;;;10.05;;
35150;SDS011;55720;51.972;4.624;2023-04-10T02:18:11;14.68;;;10.18;;
35150;SDS011;55720;51.972;4.624;2023-04-10T02:20:40;16.27;;;10.25;;
35150;SDS011;55720;51.972;4.624;2023-04-10T02:23:06;16.60;;;9.93;;
35150;SDS011;55720;51.972;4.624;2023-04-10T02:25:32;14.70;;;9.95;;
35150;SDS011;55720;51.972;4.624;2023-04-10T02:28:05;15.88;;;10.02;;
35150;SDS011;55720;51.972;4.624;2023-04-10T02:30:31;14.48;;;10.30;;
35150;SDS011;55720;51.972;4.624;2023-04-10T02:32:57;13.40;;;9.43;;
35150;SDS011;55720;51.972;4.624;2023-04-10T02:35:23;14.50;;;10.57;;
35150;SDS011;55720;51.972;4.624;2023-04-10T02:37:50;14.95;;;9.90;;
35150;SDS011;55720;51.972;4.624;2023-04-10T02:40:15;15.40;;;9.90;;
35150;SDS011;55720;51.972;4.624;2023-04-10T02:42:41;16.90;;;10.23;;
35150;SDS011;55720;51.972;4.624;2023-04-10T02:45:07;15.95;;;10.18;;
35150;SDS011;55720;51.972;4.624;2023-04-10T02:47:33;14.15;;;10.00;;
35150;SDS011;55720;51.972;4.624;2023-04-10T02:49:59;14.80;;;9.60;;
35150;SDS011;55720;51.972;4.624;2023-04-10T02:52:24;16.73;;;9.80;;
35150;SDS011;55720;51.972;4.624;2023-04-10T02:54:50;15.45;;;10.18;;
35150;SDS011;55720;51.972;4.624;2023-04-10T02:57:16;14.75;;;9.77;;
35150;SDS011;55720;51.972;4.624;2023-04-10T02:59:41;13.15;;;9.43;;
35150;SDS011;55720;51.972;4.624;2023-04-10T03:02:07;12.23;;;9.20;;
35150;SDS011;55720;51.972;4.624;2023-04-10T03:04:32;14.13;;;9.35;;
35150;SDS011;55720;51.972;4.624;2023-04-10T03:06:58;11.45;;;8.35;;
35150;SDS011;55720;51.972;4.624;2023-04-10T03:09:24;13.80;;;9.10;;
35150;SDS011;55720;51.972;4.624;2023-04-10T03:11:49;12.15;;;8.80;;
35150;SDS011;55720;51.972;4.624;2023-04-10T03:14:15;12.82;;;8.73;;
35150;SDS011;55720;51.972;4.624;2023-04-10T03:16:40;12.20;;;8.27;;
35150;SDS011;55720;51.972;4.624;2023-04-10T03:19:06;12.00;;;8.23;;
35150;SDS011;55720;51.972;4.624;2023-04-10T03:21:31;12.25;;;8.55;;
35150;SDS011;55720;51.972;4.624;2023-04-10T03:23:57;9.73;;;8.07;;
35150;SDS011;55720;51.972;4.624;2023-04-10T03:26:22;10.57;;;7.35;;
35150;SDS011;55720;51.972;4.624;2023-04-10T03:28:48;10.75;;;7.32;;
35150;SDS011;55720;51.972;4.624;2023-04-10T03:31:13;9.82;;;7.82;;
35150;SDS011;55720;51.972;4.624;2023-04-10T03:33:39;8.75;;;7.60;;
35150;SDS011;55720;51.972;4.624;2023-04-10T03:36:05;9.35;;;7.18;;
35150;SDS011;55720;51.972;4.624;2023-04-10T03:38:31;10.45;;;7.38;;
35150;SDS011;55720;51.972;4.624;2023-04-10T03:40:56;9.00;;;7.53;;
35150;SDS011;55720;51.972;4.624;2023-04-10T03:43:23;9.45;;;7.28;;
35150;SDS011;55720;51.972;4.624;2023-04-10T03:45:48;9.52;;;7.50;;
35150;SDS011;55720;51.972;4.624;2023-04-10T03:48:14;8.65;;;7.05;;
35150;SDS011;55720;51.972;4.624;2023-04-10T03:50:40;8.25;;;6.95;;
35150;SDS011;55720;51.972;4.624;2023-04-10T03:53:05;8.38;;;6.90;;
35150;SDS011;55720;51.972;4.624;2023-04-10T03:55:31;9.18;;;7.03;;
35150;SDS011;55720;51.972;4.624;2023-04-10T03:57:56;8.60;;;7.03;;
35150;SDS011;55720;51.972;4.624;2023-04-10T04:00:23;9.75;;;7.00;;
35150;SDS011;55720;51.972;4.624;2023-04-10T04:02:49;8.75;;;6.68;;
35150;SDS011;55720;51.972;4.624;2023-04-10T04:05:15;8.70;;;6.78;;
35150;SDS011;55720;51.972;4.624;2023-04-10T04:07:41;11.18;;;6.97;;
35150;SDS011;55720;51.972;4.624;2023-04-10T04:10:06;9.13;;;6.78;;
35150;SDS011;55720;51.972;4.624;2023-04-10T04:12:32;8.48;;;6.72;;
35150;SDS011;55720;51.972;4.624;2023-04-10T04:14:57;8.38;;;6.80;;
35150;SDS011;55720;51.972;4.624;2023-04-10T04:17:23;8.50;;;6.57;;
35150;SDS011;55720;51.972;4.624;2023-04-10T04:19:48;7.65;;;6.45;;
35150;SDS011;55720;51.972;4.624;2023-04-10T04:22:14;7.13;;;6.15;;
35150;SDS011;55720;51.972;4.624;2023-04-10T04:24:39;9.77;;;6.82;;
35150;SDS011;55720;51.972;4.624;2023-04-10T04:27:05;8.60;;;6.38;;
35150;SDS011;55720;51.972;4.624;2023-04-10T04:29:30;8.23;;;6.88;;
35150;SDS011;55720;51.972;4.624;2023-04-10T04:31:55;8.07;;;5.78;;
35150;SDS011;55720;51.972;4.624;2023-04-10T04:34:21;8.52;;;6.72;;
35150;SDS011;55720;51.972;4.624;2023-04-10T04:36:46;7.20;;;6.22;;
35150;SDS011;55720;51.972;4.624;2023-04-10T04:39:11;7.43;;;5.88;;
35150;SDS011;55720;51.972;4.624;2023-04-10T04:41:37;8.70;;;6.70;;
35150;SDS011;55720;51.972;4.624;2023-04-10T04:44:03;7.32;;;6.10;;
35150;SDS011;55720;51.972;4.624;2023-04-10T04:46:29;8.88;;;6.20;;
35150;SDS011;55720;51.972;4.624;2023-04-10T04:48:54;7.00;;;6.07;;
35150;SDS011;55720;51.972;4.624;2023-04-10T04:51:20;8.60;;;6.00;;
35150;SDS011;55720;51.972;4.624;2023-04-10T04:53:45;7.30;;;5.75;;
35150;SDS011;55720;51.972;4.624;2023-04-10T04:56:11;6.75;;;5.93;;
35150;SDS011;55720;51.972;4.624;2023-04-10T04:58:36;8.63;;;6.65;;
35150;SDS011;55720;51.972;4.624;2023-04-10T05:01:01;9.35;;;6.45;;
35150;SDS011;55720;51.972;4.624;2023-04-10T05:03:27;7.88;;;6.20;;
35150;SDS011;55720;51.972;4.624;2023-04-10T05:05:53;7.28;;;6.15;;
35150;SDS011;55720;51.972;4.624;2023-04-10T05:08:18;9.70;;;7.13;;
35150;SDS011;55720;51.972;4.624;2023-04-10T05:10:44;9.60;;;7.20;;
35150;SDS011;55720;51.972;4.624;2023-04-10T05:13:10;6.75;;;6.13;;
35150;SDS011;55720;51.972;4.624;2023-04-10T05:15:35;7.63;;;6.13;;
35150;SDS011;55720;51.972;4.624;2023-04-10T05:18:01;7.30;;;5.88;;
35150;SDS011;55720;51.972;4.624;2023-04-10T05:20:26;7.22;;;6.40;;
35150;SDS011;55720;51.972;4.624;2023-04-10T05:22:52;9.68;;;7.00;;
35150;SDS011;55720;51.972;4.624;2023-04-10T05:25:17;7.50;;;6.70;;
35150;SDS011;55720;51.972;4.624;2023-04-10T05:27:43;8.00;;;6.38;;
35150;SDS011;55720;51.972;4.624;2023-04-10T05:30:09;9.82;;;7.15;;
35150;SDS011;55720;51.972;4.624;2023-04-10T05:32:34;10.65;;;6.65;;
35150;SDS011;55720;51.972;4.624;2023-04-10T05:35:00;9.02;;;7.03;;
35150;SDS011;55720;51.972;4.624;2023-04-10T05:37:25;8.73;;;6.45;;
35150;SDS011;55720;51.972;4.624;2023-04-10T05:39:50;8.07;;;6.65;;
35150;SDS011;55720;51.972;4.624;2023-04-10T05:42:16;7.82;;;6.40;;
35150;SDS011;55720;51.972;4.624;2023-04-10T05:44:42;8.45;;;6.60;;
35150;SDS011;55720;51.972;4.624;2023-04-10T05:47:08;8.82;;;6.22;;
35150;SDS011;55720;51.972;4.624;2023-04-10T05:49:34;9.82;;;7.13;;
35150;SDS011;55720;51.972;4.624;2023-04-10T05:52:00;7.07;;;6.38;;
35150;SDS011;55720;51.972;4.624;2023-04-10T05:54:25;7.68;;;6.50;;
35150;SDS011;55720;51.972;4.624;2023-04-10T05:56:50;10.20;;;7.43;;
35150;SDS011;55720;51.972;4.624;2023-04-10T05:59:16;8.05;;;6.57;;
35150;SDS011;55720;51.972;4.624;2023-04-10T06:01:42;9.02;;;7.03;;
35150;SDS011;55720;51.972;4.624;2023-04-10T06:04:08;8.13;;;6.68;;
35150;SDS011;55720;51.972;4.624;2023-04-10T06:06:34;9.60;;;7.10;;
35150;SDS011;55720;51.972;4.624;2023-04-10T06:08:59;9.23;;;6.65;;
35150;SDS011;55720;51.972;4.624;2023-04-10T06:11:25;8.95;;;7.35;;
35150;SDS011;55720;51.972;4.624;2023-04-10T06:13:50;9.95;;;7.43;;
35150;SDS011;55720;51.972;4.624;2023-04-10T06:16:15;7.22;;;6.05;;
35150;SDS011;55720;51.972;4.624;2023-04-10T06:18:41;9.77;;;6.53;;
35150;SDS011;55720;51.972;4.624;2023-04-10T06:21:08;7.47;;;6.72;;
35150;SDS011;55720;51.972;4.624;2023-04-10T06:23:33;8.02;;;6.72;;
35150;SDS011;55720;51.972;4.624;2023-04-10T06:26:00;9.43;;;6.85;;
35150;SDS011;55720;51.972;4.624;2023-04-10T06:28:27;10.55;;;6.30;;
35150;SDS011;55720;51.972;4.624;2023-04-10T06:30:52;10.23;;;6.75;;
35150;SDS011;55720;51.972;4.624;2023-04-10T06:33:18;10.05;;;6.75;;
35150;SDS011;55720;51.972;4.624;2023-04-10T06:35:43;8.43;;;6.60;;
35150;SDS011;55720;51.972;4.624;2023-04-10T06:38:09;8.25;;;7.03;;
35150;SDS011;55720;51.972;4.624;2023-04-10T06:40:35;9.75;;;7.13;;
35150;SDS011;55720;51.972;4.624;2023-04-10T06:43:00;9.32;;;6.57;;
35150;SDS011;55720;51.972;4.624;2023-04-10T06:45:25;9.88;;;6.72;;
35150;SDS011;55720;51.972;4.624;2023-04-10T06:47:51;8.63;;;7.50;;
35150;SDS011;55720;51.972;4.624;2023-04-10T06:50:17;10.57;;;7.50;;
35150;SDS011;55720;51.972;4.624;2023-04-10T06:52:43;11.73;;;6.88;;
35150;SDS011;55720;51.972;4.624;2023-04-10T06:55:09;12.23;;;7.47;;
35150;SDS011;55720;51.972;4.624;2023-04-10T06:57:37;11.93;;;7.25;;
35150;SDS011;55720;51.972;4.624;2023-04-10T07:00:02;9.85;;;7.53;;
35150;SDS011;55720;51.972;4.624;2023-04-10T07:02:28;10.30;;;7.05;;
35150;SDS011;55720;51.972;4.624;2023-04-10T07:04:54;9.35;;;7.07;;
35150;SDS011;55720;51.972;4.624;2023-04-10T07:07:20;10.05;;;7.28;;
35150;SDS011;55720;51.972;4.624;2023-04-10T07:09:46;7.95;;;7.10;;
35150;SDS011;55720;51.972;4.624;2023-04-10T07:12:12;9.10;;;7.03;;
35150;SDS011;55720;51.972;4.624;2023-04-10T07:14:37;8.52;;;6.95;;
35150;SDS011;55720;51.972;4.624;2023-04-10T07:17:02;9.30;;;6.63;;
35150;SDS011;55720;51.972;4.624;2023-04-10T07:19:28;9.15;;;7.32;;
35150;SDS011;55720;51.972;4.624;2023-04-10T07:21:53;7.43;;;6.72;;
35150;SDS011;55720;51.972;4.624;2023-04-10T07:24:19;8.13;;;6.38;;
35150;SDS011;55720;51.972;4.624;2023-04-10T07:26:44;10.10;;;6.72;;
35150;SDS011;55720;51.972;4.624;2023-04-10T07:29:16;8.70;;;6.65;;
35150;SDS011;55720;51.972;4.624;2023-04-10T07:32:01;7.90;;;6.65;;
35150;SDS011;55720;51.972;4.624;2023-04-10T07:34:27;8.73;;;6.63;;
35150;SDS011;55720;51.972;4.624;2023-04-10T07:36:52;8.68;;;6.75;;
35150;SDS011;55720;51.972;4.624;2023-04-10T07:39:18;6.90;;;6.18;;
35150;SDS011;55720;51.972;4.624;2023-04-10T07:41:46;8.70;;;6.10;;
35150;SDS011;55720;51.972;4.624;2023-04-10T07:44:12;7.75;;;6.35;;
35150;SDS011;55720;51.972;4.624;2023-04-10T07:49:13;7.03;;;6.32;;
35150;SDS011;55720;51.972;4.624;2023-04-10T07:51:39;11.25;;;6.88;;
35150;SDS011;55720;51.972;4.624;2023-04-10T07:54:04;7.88;;;6.35;;
35150;SDS011;55720;51.972;4.624;2023-04-10T07:56:30;7.45;;;6.75;;
35150;SDS011;55720;51.972;4.624;2023-04-10T07:58:57;10.90;;;6.60;;
35150;SDS011;55720;51.972;4.624;2023-04-10T08:01:23;7.45;;;6.47;;
35150;SDS011;55720;51.972;4.624;2023-04-10T08:03:50;7.57;;;6.57;;
35150;SDS011;55720;51.972;4.624;2023-04-10T08:06:15;7.28;;;6.57;;
35150;SDS011;55720;51.972;4.624;2023-04-10T08:08:41;11.15;;;6.57;;
35150;SDS011;55720;51.972;4.624;2023-04-10T08:11:20;8.13;;;6.55;;
35150;SDS011;55720;51.972;4.624;2023-04-10T08:13:47;8.57;;;7.47;;
35150;SDS011;55720;51.972;4.624;2023-04-10T08:16:13;7.53;;;6.22;;
35150;SDS011;55720;51.972;4.624;2023-04-10T08:18:38;9.32;;;7.13;;
35150;SDS011;55720;51.972;4.624;2023-04-10T08:21:04;7.28;;;6.45;;
35150;SDS011;55720;51.972;4.624;2023-04-10T08:23:29;7.40;;;6.15;;
35150;SDS011;55720;51.972;4.624;2023-04-10T08:25:55;7.68;;;6.35;;
35150;SDS011;55720;51.972;4.624;2023-04-10T08:28:20;8.00;;;6.55;;
35150;SDS011;55720;51.972;4.624;2023-04-10T08:30:45;8.75;;;6.43;;
35150;SDS011;55720;51.972;4.624;2023-04-10T08:33:11;6.85;;;6.00;;
35150;SDS011;55720;51.972;4.624;2023-04-10T08:35:36;10.25;;;6.65;;
35150;SDS011;55720;51.972;4.624;2023-04-10T08:38:01;7.90;;;6.55;;
35150;SDS011;55720;51.972;4.624;2023-04-10T08:40:27;8.80;;;6.90;;
35150;SDS011;55720;51.972;4.624;2023-04-10T08:42:52;8.13;;;7.28;;
35150;SDS011;55720;51.972;4.624;2023-04-10T08:45:18;7.90;;;6.63;;
35150;SDS011;55720;51.972;4.624;2023-04-10T08:47:43;7.93;;;7.07;;
35150;SDS011;55720;51.972;4.624;2023-04-10T08:50:12;7.75;;;6.57;;
35150;SDS011;55720;51.972;4.624;2023-04-10T08:52:42;10.43;;;6.68;;
35150;SDS011;55720;51.972;4.624;2023-04-10T08:55:08;10.77;;;7.78;;
35150;SDS011;55720;51.972;4.624;2023-04-10T08:57:37;11.60;;;6.70;;
35150;SDS011;55720;51.972;4.624;2023-04-10T09:00:03;7.57;;;6.55;;
35150;SDS011;55720;51.972;4.624;2023-04-10T09:02:29;8.23;;;6.80;;
35150;SDS011;55720;51.972;4.624;2023-04-10T09:04:54;11.13;;;7.00;;
35150;SDS011;55720;51.972;4.624;2023-04-10T09:07:24;8.60;;;6.43;;
35150;SDS011;55720;51.972;4.624;2023-04-10T09:09:50;7.10;;;6.50;;
35150;SDS011;55720;51.972;4.624;2023-04-10T09:12:16;7.15;;;6.45;;
35150;SDS011;55720;51.972;4.624;2023-04-10T09:14:41;9.07;;;5.90;;
35150;SDS011;55720;51.972;4.624;2023-04-10T09:19:52;8.63;;;6.93;;
35150;SDS011;55720;51.972;4.624;2023-04-10T09:22:27;10.35;;;7.15;;
35150;SDS011;55720;51.972;4.624;2023-04-10T09:24:54;10.52;;;7.50;;
35150;SDS011;55720;51.972;4.624;2023-04-10T09:27:34;12.23;;;8.65;;
35150;SDS011;55720;51.972;4.624;2023-04-10T09:30:01;12.45;;;8.77;;
35150;SDS011;55720;51.972;4.624;2023-04-10T09:32:37;11.10;;;8.65;;
35150;SDS011;55720;51.972;4.624;2023-04-10T09:35:03;13.70;;;9.55;;
35150;SDS011;55720;51.972;4.624;2023-04-10T09:37:33;13.45;;;10.27;;
35150;SDS011;55720;51.972;4.624;2023-04-10T09:40:02;15.32;;;10.57;;
35150;SDS011;55720;51.972;4.624;2023-04-10T09:42:32;17.88;;;11.77;;
35150;SDS011;55720;51.972;4.624;2023-04-10T09:44:59;16.85;;;11.30;;
35150;SDS011;55720;51.972;4.624;2023-04-10T09:47:25;21.25;;;11.65;;
35150;SDS011;55720;51.972;4.624;2023-04-10T09:49:56;25.15;;;14.05;;
35150;SDS011;55720;51.972;4.624;2023-04-10T09:52:25;26.25;;;15.68;;
35150;SDS011;55720;51.972;4.624;2023-04-10T09:54:54;25.50;;;15.93;;
35150;SDS011;55720;51.972;4.624;2023-04-10T09:59:48;29.80;;;15.23;;
35150;SDS011;55720;51.972;4.624;2023-04-10T10:02:16;23.80;;;15.18;;
35150;SDS011;55720;51.972;4.624;2023-04-10T10:04:43;26.17;;;15.40;;
35150;SDS011;55720;51.972;4.624;2023-04-10T10:07:12;28.38;;;13.52;;
35150;SDS011;55720;51.972;4.624;2023-04-10T10:09:39;18.10;;;11.70;;
35150;SDS011;55720;51.972;4.624;2023-04-10T10:12:05;19.48;;;11.20;;
35150;SDS011;55720;51.972;4.624;2023-04-10T10:14:33;13.23;;;9.80;;
35150;SDS011;55720;51.972;4.624;2023-04-10T10:17:11;23.75;;;10.55;;
35150;SDS011;55720;51.972;4.624;2023-04-10T10:22:28;15.55;;;10.45;;
35150;SDS011;55720;51.972;4.624;2023-04-10T10:24:54;17.75;;;10.48;;
35150;SDS011;55720;51.972;4.624;2023-04-10T10:27:21;18.95;;;12.23;;
35150;SDS011;55720;51.972;4.624;2023-04-10T10:29:50;14.63;;;11.77;;
35150;SDS011;55720;51.972;4.624;2023-04-10T10:32:17;17.52;;;12.55;;
35150;SDS011;55720;51.972;4.624;2023-04-10T10:34:44;21.38;;;12.40;;
35150;SDS011;55720;51.972;4.624;2023-04-10T10:37:10;21.60;;;13.27;;
35150;SDS011;55720;51.972;4.624;2023-04-10T10:45:14;19.55;;;12.55;;
35150;SDS011;55720;51.972;4.624;2023-04-10T10:47:52;18.90;;;12.38;;
35150;SDS011;55720;51.972;4.624;2023-04-10T10:50:19;16.02;;;11.30;;
35150;SDS011;55720;51.972;4.624;2023-04-10T10:52:49;14.15;;;11.48;;
35150;SDS011;55720;51.972;4.624;2023-04-10T10:57:54;16.08;;;12.43;;
35150;SDS011;55720;51.972;4.624;2023-04-10T11:00:22;22.70;;;12.68;;
35150;SDS011;55720;51.972;4.624;2023-04-10T11:03:25;27.98;;;15.50;;
35150;SDS011;55720;51.972;4.624;2023-04-10T11:08:45;20.67;;;14.27;;
35150;SDS011;55720;51.972;4.624;2023-04-10T11:16:23;12.48;;;10.85;;
35150;SDS011;55720;51.972;4.624;2023-04-10T11:19:06;11.88;;;10.27;;
35150;SDS011;55720;51.972;4.624;2023-04-10T11:21:33;14.35;;;9.45;;
35150;SDS011;55720;51.972;4.624;2023-04-10T11:31:36;10.70;;;7.53;;
35150;SDS011;55720;51.972;4.624;2023-04-10T11:34:06;8.63;;;7.65;;
35150;SDS011;55720;51.972;4.624;2023-04-10T11:36:33;10.20;;;6.90;;
35150;SDS011;55720;51.972;4.624;2023-04-10T11:39:03;7.18;;;6.53;;
35150;SDS011;55720;51.972;4.624;2023-04-10T11:41:42;9.25;;;6.88;;
35150;SDS011;55720;51.972;4.624;2023-04-10T11:44:09;7.18;;;6.57;;
35150;SDS011;55720;51.972;4.624;2023-04-10T11:46:43;8.57;;;6.80;;
35150;SDS011;55720;51.972;4.624;2023-04-10T11:49:16;8.57;;;6.90;;
35150;SDS011;55720;51.972;4.624;2023-04-10T11:51:49;9.27;;;6.60;;
35150;SDS011;55720;51.972;4.624;2023-04-10T11:54:16;7.18;;;6.30;;
35150;SDS011;55720;51.972;4.624;2023-04-10T11:56:59;7.25;;;6.55;;
35150;SDS011;55720;51.972;4.624;2023-04-10T11:59:25;8.02;;;6.95;;
35150;SDS011;55720;51.972;4.624;2023-04-10T12:01:52;7.57;;;6.60;;
35150;SDS011;55720;51.972;4.624;2023-04-10T12:04:21;8.00;;;7.20;;
35150;SDS011;55720;51.972;4.624;2023-04-10T12:06:51;8.48;;;6.68;;
35150;SDS011;55720;51.972;4.624;2023-04-10T12:09:20;6.55;;;5.95;;
35150;SDS011;55720;51.972;4.624;2023-04-10T12:14:16;8.52;;;6.80;;
35150;SDS011;55720;51.972;4.624;2023-04-10T12:16:42;7.55;;;6.20;;
35150;SDS011;55720;51.972;4.624;2023-04-10T12:19:07;7.18;;;6.18;;
35150;SDS011;55720;51.972;4.624;2023-04-10T12:21:36;7.55;;;6.28;;
35150;SDS011;55720;51.972;4.624;2023-04-10T12:24:03;7.22;;;6.53;;
35150;SDS011;55720;51.972;4.624;2023-04-10T12:26:29;8.60;;;6.53;;
35150;SDS011;55720;51.972;4.624;2023-04-10T12:28:55;10.75;;;6.68;;
35150;SDS011;55720;51.972;4.624;2023-04-10T12:31:29;7.03;;;6.32;;
35150;SDS011;55720;51.972;4.624;2023-04-10T12:33:55;9.20;;;6.93;;
35150;SDS011;55720;51.972;4.624;2023-04-10T12:36:29;7.25;;;6.43;;
35150;SDS011;55720;51.972;4.624;2023-04-10T12:38:56;8.60;;;6.50;;
35150;SDS011;55720;51.972;4.624;2023-04-10T12:41:23;7.65;;;6.88;;
35150;SDS011;55720;51.972;4.624;2023-04-10T12:44:05;9.73;;;6.57;;
35150;SDS011;55720;51.972;4.624;2023-04-10T12:46:35;9.40;;;6.65;;
35150;SDS011;55720;51.972;4.624;2023-04-10T12:49:14;8.43;;;6.50;;
35150;SDS011;55720;51.972;4.624;2023-04-10T12:51:45;11.93;;;7.18;;
35150;SDS011;55720;51.972;4.624;2023-04-10T12:54:33;9.85;;;7.07;;
35150;SDS011;55720;51.972;4.624;2023-04-10T12:57:01;8.05;;;6.70;;
35150;SDS011;55720;51.972;4.624;2023-04-10T12:59:30;8.43;;;6.87;;
35150;SDS011;55720;51.972;4.624;2023-04-10T13:01:56;11.20;;;7.28;;
35150;SDS011;55720;51.972;4.624;2023-04-10T13:04:22;9.90;;;7.30;;
35150;SDS011;55720;51.972;4.624;2023-04-10T13:06:47;9.60;;;7.80;;
35150;SDS011;55720;51.972;4.624;2023-04-10T13:09:13;10.15;;;7.88;;
35150;SDS011;55720;51.972;4.624;2023-04-10T13:11:40;10.82;;;8.32;;
35150;SDS011;55720;51.972;4.624;2023-04-10T13:14:06;15.85;;;9.05;;
35150;SDS011;55720;51.972;4.624;2023-04-10T13:16:32;11.63;;;8.48;;
35150;SDS011;55720;51.972;4.624;2023-04-10T13:18:58;9.50;;;8.32;;
35150;SDS011;55720;51.972;4.624;2023-04-10T13:21:23;13.45;;;9.05;;
35150;SDS011;55720;51.972;4.624;2023-04-10T13:23:51;14.13;;;8.60;;
35150;SDS011;55720;51.972;4.624;2023-04-10T13:26:16;13.50;;;9.52;;
35150;SDS011;55720;51.972;4.624;2023-04-10T13:28:42;13.88;;;9.02;;
35150;SDS011;55720;51.972;4.624;2023-04-10T13:31:08;14.05;;;9.05;;
35150;SDS011;55720;51.972;4.624;2023-04-10T13:33:33;14.68;;;8.90;;
35150;SDS011;55720;51.972;4.624;2023-04-10T13:35:59;12.18;;;8.60;;
35150;SDS011;55720;51.972;4.624;2023-04-10T13:38:24;9.38;;;8.15;;
35150;SDS011;55720;51.972;4.624;2023-04-10T13:40:51;11.90;;;7.97;;
35150;SDS011;55720;51.972;4.624;2023-04-10T13:43:17;9.02;;;7.30;;
35150;SDS011;55720;51.972;4.624;2023-04-10T13:45:42;7.75;;;7.05;;
35150;SDS011;55720;51.972;4.624;2023-04-10T13:48:08;7.85;;;7.15;;
35150;SDS011;55720;51.972;4.624;2023-04-10T13:50:33;9.25;;;7.72;;
35150;SDS011;55720;51.972;4.624;2023-04-10T13:52:58;8.77;;;7.15;;
35150;SDS011;55720;51.972;4.624;2023-04-10T13:55:24;7.38;;;6.63;;
35150;SDS011;55720;51.972;4.624;2023-04-10T13:57:49;7.45;;;6.30;;
35150;SDS011;55720;51.972;4.624;2023-04-10T14:00:16;8.13;;;6.80;;
35150;SDS011;55720;51.972;4.624;2023-04-10T14:02:41;8.60;;;6.68;;
35150;SDS011;55720;51.972;4.624;2023-04-10T14:05:07;8.85;;;7.18;;
35150;SDS011;55720;51.972;4.624;2023-04-10T14:07:33;11.13;;;6.88;;
35150;SDS011;55720;51.972;4.624;2023-04-10T14:09:59;11.43;;;7.28;;
35150;SDS011;55720;51.972;4.624;2023-04-10T14:12:24;10.13;;;7.20;;
35150;SDS011;55720;51.972;4.624;2023-04-10T14:14:50;10.88;;;7.47;;
35150;SDS011;55720;51.972;4.624;2023-04-10T14:17:15;8.73;;;7.82;;
35150;SDS011;55720;51.972;4.624;2023-04-10T14:19:41;12.80;;;8.38;;
35150;SDS011;55720;51.972;4.624;2023-04-10T14:22:07;10.68;;;8.13;;
35150;SDS011;55720;51.972;4.624;2023-04-10T14:24:32;11.15;;;8.15;;
35150;SDS011;55720;51.972;4.624;2023-04-10T14:26:58;11.43;;;8.73;;
35150;SDS011;55720;51.972;4.624;2023-04-10T14:29:25;12.02;;;9.13;;
35150;SDS011;55720;51.972;4.624;2023-04-10T14:31:51;12.30;;;8.68;;
35150;SDS011;55720;51.972;4.624;2023-04-10T14:34:17;12.45;;;9.10;;
35150;SDS011;55720;51.972;4.624;2023-04-10T14:36:42;12.07;;;9.40;;
35150;SDS011;55720;51.972;4.624;2023-04-10T14:39:08;11.35;;;8.98;;
35150;SDS011;55720;51.972;4.624;2023-04-10T14:41:33;13.98;;;9.55;;
35150;SDS011;55720;51.972;4.624;2023-04-10T14:43:59;14.60;;;9.70;;
35150;SDS011;55720;51.972;4.624;2023-04-10T14:46:26;11.82;;;8.70;;
35150;SDS011;55720;51.972;4.624;2023-04-10T14:48:51;12.88;;;9.68;;
35150;SDS011;55720;51.972;4.624;2023-04-10T14:51:16;14.98;;;9.98;;
35150;SDS011;55720;51.972;4.624;2023-04-10T14:53:43;12.07;;;9.85;;
35150;SDS011;55720;51.972;4.624;2023-04-10T14:56:12;13.20;;;9.63;;
35150;SDS011;55720;51.972;4.624;2023-04-10T14:58:39;16.15;;;10.05;;
35150;SDS011;55720;51.972;4.624;2023-04-10T15:01:11;15.15;;;10.10;;
35150;SDS011;55720;51.972;4.624;2023-04-10T15:03:37;15.73;;;11.25;;
35150;SDS011;55720;51.972;4.624;2023-04-10T15:06:03;15.50;;;10.52;;
35150;SDS011;55720;51.972;4.624;2023-04-10T15:08:29;14.45;;;10.65;;
35150;SDS011;55720;51.972;4.624;2023-04-10T15:10:55;13.23;;;9.98;;
35150;SDS011;55720;51.972;4.624;2023-04-10T15:13:21;13.25;;;9.23;;
35150;SDS011;55720;51.972;4.624;2023-04-10T15:15:47;13.65;;;9.93;;
35150;SDS011;55720;51.972;4.624;2023-04-10T15:18:15;15.02;;;9.48;;
35150;SDS011;55720;51.972;4.624;2023-04-10T15:20:41;13.90;;;10.77;;
35150;SDS011;55720;51.972;4.624;2023-04-10T15:23:07;14.05;;;9.43;;
35150;SDS011;55720;51.972;4.624;2023-04-10T15:25:33;12.23;;;9.63;;
35150;SDS011;55720;51.972;4.624;2023-04-10T15:27:58;18.25;;;10.57;;
35150;SDS011;55720;51.972;4.624;2023-04-10T15:30:24;13.20;;;9.13;;